Time;durP1;ratioP1;P1;durP2;ratioP2;P2;SDS_P1;SDS_P2;PMS_P1;PMS_P2;Temp;Humidity;BMP_temperature;BMP_pressure;BME280_temperature;BME280_humidity;BME280_pressure;Samples;Min_cycle;Max_cycle;Signal;HPM_P1;HPM_P2
2022/12/31 00:00:27;;;;;;;10.88;8.82;;;;;;;9.53;100.00;99471.22;4971232;28;20038;-76
2022/12/31 00:02:52;;;;;;;11.07;9.07;;;;;;;9.51;100.00;99465.25;4971584;28;20366;-76
2022/12/31 00:05:18;;;;;;;12.03;8.53;;;;;;;9.46;100.00;99472.97;4969014;28;20037;-75
2022/12/31 00:07:43;;;;;;;12.03;8.17;;;;;;;9.46;100.00;99465.81;4972231;28;20037;-76
2022/12/31 00:10:08;;;;;;;13.10;8.73;;;;;;;9.39;100.00;99453.41;4971552;28;20121;-76
2022/12/31 00:12:34;;;;;;;18.07;9.47;;;;;;;9.47;100.00;99479.94;4982722;28;20030;-76
2022/12/31 00:15:01;;;;;;;14.00;9.10;;;;;;;9.46;100.00;99488.97;4971348;28;20305;-76
2022/12/31 00:17:26;;;;;;;10.07;7.70;;;;;;;9.52;100.00;99486.34;4983731;28;20069;-76
2022/12/31 00:19:51;;;;;;;11.23;8.70;;;;;;;9.56;100.00;99481.50;4968435;28;20041;-75
2022/12/31 00:22:17;;;;;;;12.97;8.90;;;;;;;9.51;100.00;99479.38;4984712;28;20033;-75
2022/12/31 00:24:42;;;;;;;14.10;8.17;;;;;;;9.48;100.00;99493.09;4986190;28;20034;-75
2022/12/31 00:27:07;;;;;;;13.83;8.70;;;;;;;9.54;100.00;99488.84;4983484;28;20061;-75
2022/12/31 00:29:32;;;;;;;13.40;8.13;;;;;;;9.55;100.00;99487.81;4970728;28;20055;-76
2022/12/31 00:31:58;;;;;;;17.10;8.67;;;;;;;9.56;100.00;99502.81;4988816;28;20415;-76
2022/12/31 00:34:23;;;;;;;13.77;8.77;;;;;;;9.52;100.00;99497.00;4984305;28;20048;-76
2022/12/31 00:36:49;;;;;;;10.63;7.03;;;;;;;9.58;100.00;99507.97;4969737;28;20038;-76
2022/12/31 00:39:14;;;;;;;10.83;7.47;;;;;;;9.59;100.00;99515.75;4981072;28;20061;-76
2022/12/31 00:41:42;;;;;;;12.40;7.53;;;;;;;9.58;100.00;99514.13;4970788;28;20044;-76
2022/12/31 00:44:09;;;;;;;11.98;7.75;;;;;;;9.66;100.00;99508.66;4978776;28;20112;-76
2022/12/31 00:46:34;;;;;;;10.23;7.10;;;;;;;9.69;100.00;99500.31;4968786;28;20033;-76
2022/12/31 00:49:00;;;;;;;12.37;7.37;;;;;;;9.60;100.00;99493.44;4979788;28;20077;-76
2022/12/31 00:51:28;;;;;;;11.43;6.60;;;;;;;9.71;100.00;99505.44;4987977;28;20042;-75
2022/12/31 00:53:55;;;;;;;10.30;7.13;;;;;;;9.69;100.00;99487.00;4988202;28;20850;-76
2022/12/31 00:56:22;;;;;;;13.48;8.40;;;;;;;9.77;100.00;99504.69;4984452;28;20044;-76
2022/12/31 00:58:48;;;;;;;11.35;7.15;;;;;;;9.68;100.00;99495.16;4968010;28;20561;-76
2022/12/31 01:01:21;;;;;;;10.57;7.23;;;;;;;9.67;100.00;99498.84;4986957;28;20046;-76
2022/12/31 01:03:48;;;;;;;11.90;7.03;;;;;;;9.68;100.00;99505.81;4984251;28;20471;-76
2022/12/31 01:06:14;;;;;;;15.52;7.47;;;;;;;9.59;100.00;99502.44;4970636;28;20365;-76
2022/12/31 01:08:40;;;;;;;12.15;7.57;;;;;;;9.61;100.00;99511.06;5010230;23;20081;-87
2022/12/31 01:11:17;;;;;;;11.23;6.80;;;;;;;9.60;100.00;99517.41;4984664;28;20121;-86
2022/12/31 01:13:59;;;;;;;13.05;7.38;;;;;;;9.55;100.00;99513.66;4989162;28;20033;-87
2022/12/31 01:16:44;;;;;;;15.02;6.80;;;;;;;9.64;100.00;99532.00;4990938;28;20038;-86
2022/12/31 01:19:14;;;;;;;8.63;5.60;;;;;;;9.61;100.00;99521.72;4990983;28;20046;-86
2022/12/31 01:21:40;;;;;;;14.80;7.47;;;;;;;9.58;100.00;99532.75;5006909;28;20491;-87
2022/12/31 01:24:07;;;;;;;14.13;6.22;;;;;;;9.61;100.00;99516.41;4991213;28;20591;-87
2022/12/31 01:26:34;;;;;;;12.65;6.25;;;;;;;9.59;100.00;99522.94;4990775;28;20172;-87
2022/12/31 01:28:59;;;;;;;9.05;6.55;;;;;;;9.63;100.00;99525.03;4979241;28;20027;-87
2022/12/31 01:31:25;;;;;;;7.40;5.60;;;;;;;9.74;100.00;99521.06;4973227;28;20042;-87
2022/12/31 01:33:51;;;;;;;10.30;5.97;;;;;;;9.83;100.00;99530.63;4991777;28;20038;-87
2022/12/31 01:36:19;;;;;;;7.13;5.10;;;;;;;9.79;100.00;99517.84;4991511;28;20046;-87
2022/12/31 01:38:44;;;;;;;9.20;6.38;;;;;;;9.93;100.00;99532.97;4991779;28;20042;-87
2022/12/31 01:41:16;;;;;;;10.80;5.63;;;;;;;9.95;100.00;99533.63;4986747;28;20038;-87
2022/12/31 01:43:49;;;;;;;10.60;5.38;;;;;;;9.93;100.00;99527.66;4989403;28;20114;-87
2022/12/31 01:46:22;;;;;;;9.38;5.07;;;;;;;9.88;100.00;99543.34;4989646;28;20036;-86
2022/12/31 01:48:50;;;;;;;10.13;5.90;;;;;;;9.88;100.00;99543.34;4981384;28;20054;-86
2022/12/31 01:51:16;;;;;;;9.30;6.07;;;;;;;9.82;100.00;99544.13;4989032;28;20046;-87
2022/12/31 01:53:42;;;;;;;12.77;5.65;;;;;;;9.85;100.00;99557.06;4989450;28;20474;-87
2022/12/31 01:56:08;;;;;;;10.55;6.75;;;;;;;9.84;100.00;99558.91;4998820;28;20050;-87
2022/12/31 01:58:42;;;;;;;10.15;7.07;;;;;;;9.83;100.00;99562.59;4992462;28;20276;-86
2022/12/31 02:01:10;;;;;;;8.68;5.35;;;;;;;9.89;100.00;99561.03;5035475;23;20049;-72
2022/12/31 02:03:36;;;;;;;9.10;6.03;;;;;;;9.79;100.00;99555.16;5031760;28;20465;-72
2022/12/31 02:06:07;;;;;;;9.25;5.45;;;;;;;9.85;100.00;99573.06;5009738;28;20105;-72
2022/12/31 02:08:35;;;;;;;11.07;5.65;;;;;;;9.89;100.00;99574.34;4993472;28;20089;-72
2022/12/31 02:11:00;;;;;;;9.65;5.93;;;;;;;9.83;100.00;99572.41;5020627;28;20033;-73
2022/12/31 02:13:26;;;;;;;9.30;5.60;;;;;;;9.79;100.00;99565.84;5021457;28;20038;-72
2022/12/31 02:16:09;;;;;;;10.97;6.03;;;;;;;9.84;100.00;99556.25;5004903;28;20334;-72
2022/12/31 02:18:45;;;;;;;10.23;5.68;;;;;;;9.82;100.00;99568.13;5003489;28;20478;-73
2022/12/31 02:21:35;;;;;;;7.65;5.38;;;;;;;9.88;100.00;99562.03;5005841;28;20037;-73
2022/12/31 02:24:29;;;;;;;12.88;6.75;;;;;;;9.88;100.00;99565.53;4993447;28;20034;-73
2022/12/31 02:27:05;;;;;;;10.02;4.97;;;;;;;9.90;100.00;99571.50;5005045;28;20044;-73
2022/12/31 02:29:52;;;;;;;13.07;5.85;;;;;;;9.93;100.00;99572.97;4996931;28;20546;-72
2022/12/31 02:32:49;;;;;;;8.75;5.28;;;;;;;9.97;100.00;99574.22;4997839;28;20487;-72
2022/12/31 02:35:24;;;;;;;9.40;5.93;;;;;;;9.97;100.00;99563.56;4994162;28;20052;-73
2022/12/31 02:37:56;;;;;;;9.52;6.45;;;;;;;9.91;100.00;99565.16;5003010;28;20038;-73
2022/12/31 02:40:22;;;;;;;11.77;6.20;;;;;;;9.94;100.00;99574.63;5004513;28;20049;-73
2022/12/31 02:42:47;;;;;;;8.15;6.22;;;;;;;9.93;100.00;99581.78;5003549;28;20026;-72
2022/12/31 02:45:19;;;;;;;12.80;7.60;;;;;;;9.96;100.00;99574.44;5006582;28;20041;-72
2022/12/31 02:48:05;;;;;;;9.65;5.90;;;;;;;9.99;100.00;99582.06;5017372;28;20045;-72
2022/12/31 02:50:54;;;;;;;7.20;5.78;;;;;;;9.94;100.00;99577.28;5018470;28;20038;-72
2022/12/31 02:53:53;;;;;;;10.38;6.53;;;;;;;9.89;100.00;99572.50;5012184;28;20442;-72
2022/12/31 02:56:22;;;;;;;12.27;5.60;;;;;;;9.99;100.00;99587.38;4996922;28;20042;-73
2022/12/31 03:02:14;;;;;;;10.02;6.47;;;;;;;10.01;100.00;99578.19;5004920;28;20030;-72
2022/12/31 03:05:01;;;;;;;15.77;7.55;;;;;;;9.99;100.00;99576.72;5018208;28;20100;-72
2022/12/31 03:07:31;;;;;;;9.13;5.75;;;;;;;10.00;100.00;99581.88;5019514;28;20478;-73
2022/12/31 03:09:57;;;;;;;12.55;7.20;;;;;;;10.01;100.00;99590.69;4990056;28;20034;-72
2022/12/31 03:12:46;;;;;;;;;;;;;;;10.04;100.00;99596.47;5005370;28;20488;-72
2022/12/31 03:15:18;;;;;;;10.65;6.78;;;;;;;9.98;100.00;99597.22;4997333;28;19913;-72
2022/12/31 03:17:46;;;;;;;13.10;7.82;;;;;;;10.03;100.00;99588.66;5005288;28;20042;-72
2022/12/31 03:22:55;;;;;;;12.88;7.07;;;;;;;9.97;100.00;99597.41;5004090;28;20029;-72
2022/12/31 03:25:39;;;;;;;10.55;6.70;;;;;;;9.93;100.00;99600.47;5019115;28;20064;-72
2022/12/31 03:28:14;;;;;;;10.45;5.95;;;;;;;10.02;100.00;99614.53;4998026;28;20100;-72
2022/12/31 03:30:43;;;;;;;9.00;5.85;;;;;;;10.04;100.00;99606.31;5002896;28;20030;-72
2022/12/31 03:33:08;;;;;;;16.17;7.03;;;;;;;10.09;100.00;99610.09;5004236;28;20045;-72
2022/12/31 03:35:37;;;;;;;12.27;6.40;;;;;;;10.08;100.00;99600.41;5000919;28;20042;-72
2022/12/31 03:38:03;;;;;;;15.43;6.75;;;;;;;9.96;100.00;99579.78;5019294;28;20053;-73
2022/12/31 03:40:30;;;;;;;10.32;5.30;;;;;;;10.02;100.00;99598.50;5021542;28;20030;-72
2022/12/31 03:42:56;;;;;;;14.25;6.38;;;;;;;10.09;100.00;99594.09;5004149;28;20471;-72
2022/12/31 03:45:21;;;;;;;9.60;6.70;;;;;;;10.03;100.00;99589.50;5018575;28;20033;-73
2022/12/31 03:47:47;;;;;;;13.65;6.95;;;;;;;10.03;100.00;99594.81;5001302;28;20451;-72
2022/12/31 03:50:15;;;;;;;11.30;5.43;;;;;;;10.03;100.00;99589.50;5005078;28;20038;-72
2022/12/31 03:52:41;;;;;;;15.90;6.32;;;;;;;10.07;100.00;99589.97;5003612;28;20112;-72
2022/12/31 03:55:07;;;;;;;10.73;5.60;;;;;;;10.01;100.00;99596.84;5003833;28;20392;-72
2022/12/31 03:57:33;;;;;;;9.55;6.70;;;;;;;10.08;100.00;99607.59;5004721;28;20056;-73
2022/12/31 03:59:58;;;;;;;11.40;7.00;;;;;;;9.96;100.00;99593.09;5004775;28;20637;-72
2022/12/31 04:02:24;;;;;;;9.40;5.93;;;;;;;9.91;100.00;99585.66;5003547;28;20057;-73
2022/12/31 04:04:49;;;;;;;14.02;7.05;;;;;;;9.89;100.00;99598.34;5003427;28;20080;-73
2022/12/31 04:07:15;;;;;;;16.33;6.07;;;;;;;9.83;100.00;99615.06;5004456;28;20096;-73
2022/12/31 04:09:40;;;;;;;12.77;5.97;;;;;;;9.75;100.00;99615.19;5019842;28;20044;-73
2022/12/31 04:12:06;;;;;;;7.90;5.40;;;;;;;9.78;100.00;99626.28;5005292;28;20029;-73
2022/12/31 04:14:31;;;;;;;8.93;5.32;;;;;;;9.83;100.00;99633.72;5005644;28;20474;-73
2022/12/31 04:16:56;;;;;;;12.07;5.17;;;;;;;9.71;100.00;99617.38;5019537;28;20030;-73
2022/12/31 04:19:22;;;;;;;10.33;5.10;;;;;;;9.72;100.00;99635.84;5005059;28;20026;-72
2022/12/31 04:21:47;;;;;;;8.63;4.67;;;;;;;9.68;100.00;99628.41;5003800;28;20610;-73
2022/12/31 04:24:13;;;;;;;7.57;4.90;;;;;;;9.62;100.00;99619.31;5005518;28;20091;-73
2022/12/31 04:26:38;;;;;;;8.03;5.63;;;;;;;9.60;100.00;99632.00;5003416;28;20061;-73
2022/12/31 04:29:04;;;;;;;10.07;5.27;;;;;;;9.54;100.00;99640.72;5007281;28;20333;-72
2022/12/31 04:31:31;;;;;;;7.32;5.00;;;;;;;9.57;100.00;99651.00;5001235;28;20034;-73
2022/12/31 04:33:56;;;;;;;;;;;;;;;9.54;100.00;99648.72;4991431;28;20467;-73
2022/12/31 04:36:22;;;;;;;8.55;5.80;;;;;;;9.45;100.00;99639.97;5006182;28;19971;-73
2022/12/31 04:38:47;;;;;;;13.20;8.48;;;;;;;9.53;100.00;99657.72;5006856;28;20491;-73
2022/12/31 04:41:19;;;;;;;12.80;8.77;;;;;;;9.56;100.00;99664.53;5004006;28;20022;-73
2022/12/31 04:43:52;;;;;;;17.13;9.88;;;;;;;9.73;100.00;99676.66;5003905;28;20039;-72
2022/12/31 04:46:21;;;;;;;11.68;9.52;;;;;;;9.73;100.00;99674.81;5004664;28;20264;-72
2022/12/31 04:48:46;;;;;;;13.43;9.20;;;;;;;9.82;100.00;99682.75;5020907;28;20076;-73
2022/12/31 04:51:12;;;;;;;13.40;9.70;;;;;;;9.88;100.00;99687.31;5002931;28;20065;-73
2022/12/31 04:53:38;;;;;;;13.57;9.27;;;;;;;9.92;100.00;99676.09;5000840;28;20022;-72
2022/12/31 04:56:04;;;;;;;17.80;9.15;;;;;;;9.93;100.00;99680.44;5005140;28;20432;-73
2022/12/31 04:58:30;;;;;;;13.27;8.93;;;;;;;9.96;100.00;99684.56;5002505;28;20119;-72
2022/12/31 05:00:56;;;;;;;14.98;8.70;;;;;;;9.94;100.00;99700.75;5003274;28;20478;-72
2022/12/31 05:03:23;;;;;;;11.77;8.20;;;;;;;9.97;100.00;99696.88;5004724;28;20038;-73
2022/12/31 05:05:48;;;;;;;12.27;7.60;;;;;;;9.99;100.00;99694.03;5002923;28;20296;-73
2022/12/31 05:08:15;;;;;;;13.35;8.30;;;;;;;9.99;100.00;99694.03;5001414;28;20025;-73
2022/12/31 05:10:43;;;;;;;14.27;7.88;;;;;;;10.01;100.00;99692.03;5004066;28;20053;-73
2022/12/31 05:13:09;;;;;;;13.32;7.85;;;;;;;9.98;100.00;99684.41;5018653;28;20034;-73
2022/12/31 05:15:35;;;;;;;10.30;6.78;;;;;;;10.06;100.00;99693.09;5003116;28;20128;-73
2022/12/31 05:18:00;;;;;;;12.05;7.68;;;;;;;10.01;100.00;99684.84;5004394;28;20084;-72
2022/12/31 05:20:26;;;;;;;12.70;6.50;;;;;;;9.97;100.00;99682.72;5003443;28;20033;-73
2022/12/31 05:22:52;;;;;;;9.95;6.47;;;;;;;9.93;100.00;99674.28;5002264;28;20025;-73
2022/12/31 05:25:17;;;;;;;11.97;7.33;;;;;;;9.96;100.00;99681.91;5004225;28;20042;-74
2022/12/31 05:27:43;;;;;;;10.90;6.70;;;;;;;9.94;100.00;99667.94;5002267;28;20044;-73
2022/12/31 05:30:09;;;;;;;11.88;6.75;;;;;;;9.97;100.00;99654.22;5017608;28;20057;-72
2022/12/31 05:32:34;;;;;;;12.77;5.85;;;;;;;10.05;100.00;99663.97;5020158;28;20526;-73
2022/12/31 05:35:00;;;;;;;8.65;4.82;;;;;;;10.01;100.00;99666.19;5004109;28;20034;-73
2022/12/31 05:37:27;;;;;;;10.48;5.05;;;;;;;9.97;100.00;99667.56;5001232;28;20034;-72
2022/12/31 05:39:53;;;;;;;8.35;5.28;;;;;;;9.97;100.00;99672.06;5003345;28;20978;-73
2022/12/31 05:42:18;;;;;;;7.82;4.53;;;;;;;9.97;100.00;99664.06;5006040;28;20033;-72
2022/12/31 05:44:44;;;;;;;8.33;3.93;;;;;;;9.98;100.00;99671.88;5005902;28;20726;-73
2022/12/31 05:47:09;;;;;;;6.13;4.07;;;;;;;9.97;100.00;99670.22;5006045;28;20474;-73
2022/12/31 05:49:34;;;;;;;6.57;3.90;;;;;;;9.96;100.00;99663.25;5006035;28;20045;-74
2022/12/31 05:52:00;;;;;;;6.83;3.77;;;;;;;10.00;100.00;99669.88;5002664;28;20042;-74
2022/12/31 05:54:25;;;;;;;6.80;4.90;;;;;;;9.89;100.00;99668.47;5002895;28;20022;-73
2022/12/31 05:56:51;;;;;;;8.93;5.30;;;;;;;9.92;100.00;99670.78;5003078;28;20045;-73
2022/12/31 05:59:16;;;;;;;9.88;5.65;;;;;;;9.90;100.00;99669.31;5000869;28;20041;-73
2022/12/31 06:01:41;;;;;;;10.47;5.07;;;;;;;9.89;100.00;99678.31;5005701;28;20091;-73
2022/12/31 06:04:07;;;;;;;8.00;5.60;;;;;;;9.85;100.00;99674.38;5004173;28;20107;-73
2022/12/31 06:06:32;;;;;;;10.37;6.23;;;;;;;9.84;100.00;99678.06;5003761;28;20431;-72
2022/12/31 06:08:57;;;;;;;8.63;5.83;;;;;;;9.81;100.00;99676.59;5002260;28;20818;-73
2022/12/31 06:11:23;;;;;;;10.60;6.30;;;;;;;9.82;100.00;99672.06;5019378;28;20038;-72
2022/12/31 06:13:48;;;;;;;7.70;6.07;;;;;;;9.86;100.00;99668.84;5004920;28;20499;-73
2022/12/31 06:16:14;;;;;;;8.97;5.53;;;;;;;9.89;100.00;99671.16;5004355;28;20487;-73
2022/12/31 06:18:39;;;;;;;7.47;4.73;;;;;;;9.86;100.00;99674.19;5021041;28;20026;-72
2022/12/31 06:21:05;;;;;;;11.33;5.53;;;;;;;9.83;100.00;99681.72;5005211;28;20040;-73
2022/12/31 06:23:30;;;;;;;6.60;4.43;;;;;;;9.80;100.00;99674.91;5005839;28;20064;-73
2022/12/31 06:25:55;;;;;;;6.37;4.00;;;;;;;9.82;100.00;99677.41;5020665;28;20284;-72
2022/12/31 06:28:21;;;;;;;10.17;4.37;;;;;;;9.86;100.00;99678.69;5005189;28;20038;-72
2022/12/31 06:30:47;;;;;;;6.43;4.03;;;;;;;9.81;100.00;99679.25;5002197;28;20588;-73
2022/12/31 06:33:12;;;;;;;5.40;3.75;;;;;;;9.77;100.00;99672.63;5020973;28;20376;-72
2022/12/31 06:35:37;;;;;;;4.87;3.73;;;;;;;9.77;100.00;99669.13;5003777;28;20053;-72
2022/12/31 06:38:03;;;;;;;4.30;3.00;;;;;;;9.75;100.00;99673.81;5000274;28;20092;-73
2022/12/31 06:40:29;;;;;;;5.60;3.17;;;;;;;9.71;100.00;99668.84;5002840;28;20121;-73
2022/12/31 06:42:54;;;;;;;4.10;3.50;;;;;;;9.69;100.00;99670.88;5008187;28;20536;-72
2022/12/31 06:45:19;;;;;;;4.83;3.00;;;;;;;9.68;100.00;99682.53;5008921;28;20478;-73
2022/12/31 06:47:45;;;;;;;4.37;3.57;;;;;;;9.69;100.00;99684.22;5007324;28;20042;-72
2022/12/31 06:50:10;;;;;;;5.63;3.27;;;;;;;9.66;100.00;99679.22;5008805;28;20038;-72
2022/12/31 06:52:36;;;;;;;5.67;3.40;;;;;;;9.64;100.00;99681.25;5008342;28;20352;-72
2022/12/31 06:55:02;;;;;;;5.70;4.78;;;;;;;9.61;100.00;99676.28;5007393;28;20514;-72
2022/12/31 06:57:28;;;;;;;8.30;4.15;;;;;;;9.60;100.00;99669.31;5006324;28;20033;-73
2022/12/31 06:59:54;;;;;;;6.78;4.63;;;;;;;9.58;100.00;99668.66;5005330;28;20100;-72
2022/12/31 07:02:40;;;;;;;12.82;5.05;;;;;;;9.62;100.00;99672.63;5021533;28;20037;-72
2022/12/31 07:05:27;;;;;;;7.65;4.47;;;;;;;9.60;100.00;99669.31;5000734;28;20071;-73
2022/12/31 07:08:11;;;;;;;6.88;4.97;;;;;;;9.58;100.00;99660.66;5006404;28;20080;-73
2022/12/31 07:10:43;;;;;;;7.93;4.80;;;;;;;9.55;100.00;99661.00;5023887;28;20029;-73
2022/12/31 07:13:14;;;;;;;8.55;5.28;;;;;;;9.55;100.00;99666.34;5024024;28;20034;-72
2022/12/31 07:16:03;;;;;;;7.53;5.15;;;;;;;9.60;100.00;99653.31;5008440;28;20498;-73
2022/12/31 07:18:56;;;;;;;6.13;4.72;;;;;;;9.59;100.00;99659.66;5008494;28;20038;-73
2022/12/31 07:21:35;;;;;;;5.85;4.68;;;;;;;9.61;100.00;99657.63;5008404;28;20045;-73
2022/12/31 07:24:01;;;;;;;7.38;4.88;;;;;;;9.59;100.00;99664.16;5006739;28;20026;-72
2022/12/31 07:26:41;;;;;;;5.50;4.72;;;;;;;9.60;100.00;99656.00;5005873;28;20036;-72
2022/12/31 07:29:24;;;;;;;5.82;3.72;;;;;;;9.63;100.00;99655.63;4994963;28;20041;-73
2022/12/31 07:32:27;;;;;;;7.45;4.55;;;;;;;9.62;100.00;99645.97;5004107;28;20049;-73
2022/12/31 07:35:23;;;;;;;5.10;4.30;;;;;;;9.61;100.00;99646.97;5018635;28;20042;-73
2022/12/31 07:38:17;;;;;;;7.10;4.30;;;;;;;9.64;100.00;99653.78;5003943;28;20057;-73
2022/12/31 07:40:53;;;;;;;5.65;4.50;;;;;;;9.64;100.00;99643.94;5023180;28;20030;-73
2022/12/31 07:43:39;;;;;;;5.93;4.07;;;;;;;9.67;100.00;99648.91;5008108;28;20029;-73
2022/12/31 07:46:29;;;;;;;9.05;4.03;;;;;;;9.64;100.00;99649.25;4991132;28;20038;-72
2022/12/31 07:48:55;;;;;;;4.30;3.05;;;;;;;9.64;100.00;99653.78;5007637;28;20034;-72
2022/12/31 07:51:20;;;;;;;4.97;2.83;;;;;;;9.66;100.00;99657.91;5008007;28;20022;-72
2022/12/31 07:53:46;;;;;;;4.95;3.53;;;;;;;9.66;100.00;99662.41;5006990;28;20036;-72
2022/12/31 07:56:12;;;;;;;6.43;3.27;;;;;;;9.64;100.00;99667.91;5006603;28;20045;-72
2022/12/31 07:58:47;;;;;;;6.00;3.67;;;;;;;9.66;100.00;99679.22;4996250;28;20034;-72
2022/12/31 08:01:16;;;;;;;4.55;2.80;;;;;;;9.64;100.00;99681.25;5010760;28;20550;-72
2022/12/31 08:04:00;;;;;;;3.58;2.75;;;;;;;9.65;100.00;99682.91;5003742;28;20022;-72
2022/12/31 08:06:28;;;;;;;4.72;3.42;;;;;;;9.57;100.00;99693.63;5005535;28;20030;-73
2022/12/31 08:09:22;;;;;;;5.03;3.00;;;;;;;9.46;100.00;99678.94;5021315;28;20052;-73
2022/12/31 08:11:56;;;;;;;3.97;3.00;;;;;;;9.42;100.00;99688.28;5003231;28;20069;-73
2022/12/31 08:14:22;;;;;;;5.70;4.05;;;;;;;9.43;100.00;99689.13;5020704;28;20280;-73
2022/12/31 08:16:48;;;;;;;4.53;3.85;;;;;;;9.43;100.00;99673.94;5006071;28;20028;-73
2022/12/31 08:19:20;;;;;;;;;;;;;;;9.42;100.00;99677.63;4989526;28;20057;-73
2022/12/31 08:21:50;;;;;;;7.72;4.45;;;;;;;9.42;100.00;99676.81;5007233;28;19975;-73
2022/12/31 08:24:40;;;;;;;4.55;3.55;;;;;;;9.46;100.00;99684.28;5005891;28;20506;-73
2022/12/31 08:27:20;;;;;;;6.43;3.22;;;;;;;9.48;100.00;99686.72;5008995;28;20042;-73
2022/12/31 08:30:00;;;;;;;3.53;3.22;;;;;;;9.44;100.00;99670.28;5001531;28;20034;-73
2022/12/31 08:32:41;;;;;;;3.58;3.05;;;;;;;9.47;100.00;99666.44;5001770;28;20045;-73
2022/12/31 08:35:32;;;;;;;3.05;2.42;;;;;;;9.52;100.00;99667.53;5021203;28;20072;-73
2022/12/31 08:38:25;;;;;;;2.30;2.10;;;;;;;9.51;100.00;99675.72;5006647;28;20033;-73
2022/12/31 08:41:28;;;;;;;3.58;1.90;;;;;;;9.54;100.00;99675.34;5020146;28;20033;-73
2022/12/31 08:44:03;;;;;;;2.40;1.98;;;;;;;9.55;100.00;99693.00;5005539;28;20060;-73
2022/12/31 08:47:15;;;;;;;2.80;1.73;;;;;;;9.59;100.00;99698.78;5014376;28;20044;-73
2022/12/31 08:49:41;;;;;;;3.60;1.80;;;;;;;9.80;100.00;99695.41;4944020;29;20303;-73
2022/12/31 08:52:23;;;;;;;2.38;1.90;;;;;;;9.75;100.00;99695.16;4934994;29;20027;-74
2022/12/31 08:54:49;;;;;;;2.67;1.52;;;;;;;9.66;100.00;99679.22;4932528;29;20051;-73
2022/12/31 08:57:38;;;;;;;2.20;2.00;;;;;;;9.68;100.00;99687.03;4939510;29;20058;-73
2022/12/31 09:00:10;;;;;;;2.30;1.55;;;;;;;9.69;100.00;99691.34;4930738;29;20429;-73
2022/12/31 09:03:20;;;;;;;3.22;1.90;;;;;;;9.68;100.00;99690.53;4941185;29;20049;-73
2022/12/31 09:06:24;;;;;;;3.50;2.15;;;;;;;9.66;100.00;99697.88;4933419;28;20039;-73
2022/12/31 09:09:10;;;;;;;3.08;1.88;;;;;;;9.66;100.00;99695.22;4921365;29;20134;-73
2022/12/31 09:11:59;;;;;;;4.18;2.13;;;;;;;9.62;100.00;99691.28;4942126;29;20063;-74
2022/12/31 09:14:24;;;;;;;5.53;2.30;;;;;;;9.58;100.00;99687.31;4941585;29;20048;-74
2022/12/31 09:16:55;;;;;;;2.87;1.53;;;;;;;9.64;100.00;99699.91;4943783;29;20028;-73
2022/12/31 09:19:20;;;;;;;3.00;1.45;;;;;;;9.61;100.00;99702.13;4944031;28;20051;-73
2022/12/31 09:21:46;;;;;;;2.13;1.27;;;;;;;9.58;100.00;99703.31;5003915;28;20088;-74
2022/12/31 09:24:13;;;;;;;2.65;1.92;;;;;;;9.52;100.00;99717.34;5021609;28;20026;-74
2022/12/31 09:26:47;;;;;;;2.05;1.50;;;;;;;9.54;100.00;99733.16;5015487;28;20673;-73
2022/12/31 09:29:43;;;;;;;4.72;2.38;;;;;;;9.57;100.00;99732.78;5000136;28;20030;-73
2022/12/31 09:32:24;;;;;;;3.38;1.83;;;;;;;9.55;100.00;99742.78;5010016;28;20502;-74
2022/12/31 09:34:58;;;;;;;1.45;1.20;;;;;;;9.48;100.00;99742.69;5006242;28;20034;-73
2022/12/31 09:37:34;;;;;;;1.60;1.25;;;;;;;9.47;100.00;99744.53;4988571;28;20395;-73
2022/12/31 09:40:18;;;;;;;2.08;1.33;;;;;;;9.42;100.00;99724.78;5005163;28;20152;-73
2022/12/31 09:43:06;;;;;;;1.90;1.42;;;;;;;9.45;100.00;99743.06;5005915;28;20038;-73
2022/12/31 09:45:38;;;;;;;1.48;1.20;;;;;;;9.46;100.00;99747.38;5021064;28;20030;-72
2022/12/31 09:48:27;;;;;;;4.93;2.65;;;;;;;9.47;100.00;99747.19;5006219;28;20038;-72
2022/12/31 09:51:01;;;;;;;2.28;1.30;;;;;;;9.51;100.00;99753.00;4976963;28;20065;-72
2022/12/31 09:53:39;;;;;;;1.40;1.08;;;;;;;9.43;100.00;99753.06;5003714;28;20372;-72
2022/12/31 09:56:16;;;;;;;1.30;0.98;;;;;;;9.39;100.00;99747.28;4992455;28;20069;-72
2022/12/31 09:58:47;;;;;;;2.90;1.58;;;;;;;9.45;100.00;99740.38;4999878;28;20038;-72
2022/12/31 10:01:34;;;;;;;1.30;1.05;;;;;;;9.45;100.00;99735.06;5002943;28;20307;-73
2022/12/31 10:04:25;;;;;;;1.30;0.90;;;;;;;9.34;100.00;99724.81;5020468;28;20060;-72
2022/12/31 10:07:28;;;;;;;1.95;1.00;;;;;;;9.38;100.00;99728.78;5005139;28;20515;-72
2022/12/31 10:10:13;;;;;;;5.25;1.40;;;;;;;9.30;100.00;99727.84;5015984;28;20040;-73
2022/12/31 10:12:43;;;;;;;1.50;1.05;;;;;;;9.31;100.00;99734.00;5003949;28;20042;-72
2022/12/31 10:15:40;;;;;;;1.73;1.02;;;;;;;9.36;100.00;99720.97;5002549;28;20061;-72
2022/12/31 10:18:32;;;;;;;1.27;0.80;;;;;;;9.30;100.00;99722.53;4994674;28;20080;-72
2022/12/31 10:21:15;;;;;;;1.77;0.93;;;;;;;9.33;100.00;99723.19;5009213;28;20135;-72
2022/12/31 10:24:11;;;;;;;0.95;0.68;;;;;;;9.29;100.00;99707.56;5009377;28;20036;-72
2022/12/31 10:27:01;;;;;;;2.40;0.80;;;;;;;9.34;100.00;99708.84;5007464;28;20042;-72
2022/12/31 10:29:55;;;;;;;0.82;0.80;;;;;;;9.34;100.00;99696.38;5009762;28;20040;-73
2022/12/31 10:33:03;;;;;;;1.10;0.70;;;;;;;9.35;100.00;99691.88;5007318;28;20038;-72
2022/12/31 10:35:42;;;;;;;0.77;0.50;;;;;;;9.24;100.00;99680.63;4989676;28;20053;-72
2022/12/31 10:38:35;;;;;;;2.13;0.63;;;;;;;9.29;100.00;99680.06;4999178;28;20053;-72
2022/12/31 10:41:31;;;;;;;1.40;0.70;;;;;;;9.24;100.00;99663.81;4995993;28;20057;-72
2022/12/31 10:44:27;;;;;;;0.38;0.30;;;;;;;9.21;100.00;99653.53;5007329;28;20423;-72
2022/12/31 10:47:11;;;;;;;0.80;0.40;;;;;;;9.17;100.00;99647.72;5023438;28;20038;-73
2022/12/31 10:50:03;;;;;;;1.27;0.43;;;;;;;9.13;100.00;99635.81;5003649;28;20041;-73
2022/12/31 10:53:11;;;;;;;1.67;0.50;;;;;;;9.08;100.00;99639.00;5005705;28;20438;-73
2022/12/31 10:56:24;;;;;;;2.95;0.65;;;;;;;9.06;100.00;99632.19;5024305;28;20038;-73
2022/12/31 10:59:08;;;;;;;1.52;0.70;;;;;;;9.02;100.00;99636.22;4961454;28;20073;-73
2022/12/31 11:02:11;;;;;;;3.50;0.60;;;;;;;9.07;100.00;99647.16;5008692;28;20038;-73
2022/12/31 11:04:58;;;;;;;1.08;0.70;;;;;;;9.07;100.00;99655.16;5023785;28;20037;-73
2022/12/31 11:07:45;;;;;;;1.20;0.63;;;;;;;8.95;100.00;99660.06;5008044;28;20114;-73
2022/12/31 11:10:28;;;;;;;1.33;0.70;;;;;;;8.93;100.00;99659.41;4996980;28;20068;-74
2022/12/31 11:13:14;;;;;;;3.35;0.70;;;;;;;8.91;100.00;99668.59;5004846;28;20037;-74
2022/12/31 11:16:04;;;;;;;1.65;0.95;;;;;;;8.95;100.00;99670.72;5024008;28;20038;-74
2022/12/31 11:18:35;;;;;;;1.75;0.82;;;;;;;8.86;100.00;99653.97;5023994;28;20056;-74
2022/12/31 11:21:34;;;;;;;2.33;1.40;;;;;;;8.88;100.00;99659.94;5023664;28;20042;-75
2022/12/31 11:24:12;;;;;;;1.15;0.90;;;;;;;8.97;100.00;99682.03;4993818;28;20128;-74
2022/12/31 11:26:59;;;;;;;3.72;0.80;;;;;;;8.93;100.00;99669.25;5006862;28;20149;-74
2022/12/31 11:29:47;;;;;;;1.05;0.85;;;;;;;8.91;100.00;99679.25;5006738;28;20483;-74
2022/12/31 11:32:54;;;;;;;4.20;0.70;;;;;;;8.97;100.00;99676.69;5005133;28;20042;-74
2022/12/31 11:35:53;;;;;;;3.17;1.10;;;;;;;8.99;100.00;99665.84;4998766;28;20136;-74
2022/12/31 11:38:24;;;;;;;2.28;1.10;;;;;;;9.08;100.00;99672.75;4998444;28;20053;-74
2022/12/31 11:41:08;;;;;;;1.90;1.10;;;;;;;8.96;100.00;99653.72;5021836;28;20395;-76
2022/12/31 11:43:37;;;;;;;3.95;1.10;;;;;;;9.01;100.00;99658.53;5023772;28;20487;-75
2022/12/31 11:46:32;;;;;;;2.35;1.00;;;;;;;9.01;100.00;99663.84;5023676;28;20026;-76
2022/12/31 11:49:38;;;;;;;3.28;1.52;;;;;;;9.13;100.00;99678.41;4994896;28;20239;-73
2022/12/31 11:52:32;;;;;;;4.15;2.08;;;;;;;9.18;100.00;99684.03;5005049;28;20060;-73
2022/12/31 11:55:23;;;;;;;3.95;2.10;;;;;;;9.23;100.00;99668.31;4990529;28;20033;-74
2022/12/31 11:57:50;;;;;;;3.92;2.92;;;;;;;9.30;100.00;99663.94;5019530;28;20034;-73
2022/12/31 12:00:21;;;;;;;2.78;2.30;;;;;;;9.46;100.00;99664.81;5001855;28;20030;-75
2022/12/31 12:03:13;;;;;;;4.03;3.10;;;;;;;9.58;100.00;99666.00;5004695;28;20030;-76
2022/12/31 12:05:39;;;;;;;6.60;3.70;;;;;;;9.73;100.00;99648.16;5000295;28;20054;-76
2022/12/31 12:08:05;;;;;;;7.28;4.30;;;;;;;9.87;100.00;99659.03;4986798;28;20041;-76